Overview Statistics Trail Chart Weather Telemetry Raw packets
 

This is the latest recevied weather packets stored in our database for station/object WA6ODQ-13. If no packets are shown the sender has not sent any weather packets the latest 10 day(s).

<< 98 99 100 101 102 103 104 >>
Time Temp. Humidity Pressure Rain* Wind** Luminosity Snow
1787934234 23.33° C 41% 1012.6 hPa 0 mm - 137 W/m² -
1787933933 22.78° C 43% 1012.3 hPa 0 mm - 123 W/m² -
1787933627 21.67° C 50% 1012.4 hPa 0 mm - 114 W/m² -
1787933322 21.67° C 52% 1012.3 hPa 0 mm - 102 W/m² -
1787933021 21.67° C 50% 1012.4 hPa 0 mm - 88 W/m² -
1787932720 21.67° C 52% 1012.4 hPa 0 mm - 71 W/m² -
1787932415 21.11° C 51% 1012.1 hPa 0 mm - 55 W/m² -
1787932110 20.56° C 57% 1012.3 hPa 0 mm - 47 W/m² -
1787931808 20.56° C 61% 1012 hPa 0 mm - 40 W/m² -
1787931503 20.56° C 59% 1011.9 hPa 0 mm - 38 W/m² -
1787931198 20.56° C 57% 1011.5 hPa 0 mm - 39 W/m² -
1787930596 21.11° C 57% 1011.3 hPa 0 mm - 40 W/m² -
1787930291 20.56° C 59% 1011.1 hPa 0 mm - 39 W/m² -
1787929986 20.56° C 60% 1011.2 hPa 0 mm - 34 W/m² -
1787929685 20.56° C 61% 1011 hPa 0 mm - 28 W/m² -
1787929380 20.56° C 61% 1010.9 hPa 0 mm - 24 W/m² -
1787929077 20.56° C 61% 1010.8 hPa 0 mm - 23 W/m² -
1787928773 20° C 62% 1010.8 hPa 0 mm - 23 W/m² -
1787928472 20° C 63% 1010.8 hPa 0 mm - 24 W/m² -
1787928171 20° C 64% 1010.7 hPa 0 mm - 27 W/m² -
1787927865 20° C 65% 1010.5 hPa 0 mm - 25 W/m² -
1787927559 20° C 65% 1010.5 hPa 0 mm - 20 W/m² -
1787927254 20° C 64% 1010.6 hPa 0 mm - 16 W/m² -
1787926950 19.44° C 65% 1010.5 hPa 0 mm - 14 W/m² -
1787926645 19.44° C 65% 1010.4 hPa 0 mm - 11 W/m² -

* Rain latest hour (hover to see other rain measurements)
** Current wind speed in m/s (hover to see current wind gust speed)